sensor_id;sensor_type;location;lat;lon;timestamp;pressure;altitude;pressure_sealevel;temperature;humidity
77381;BME280;66439;50.106;10.996;2024-02-26T00:02:01;97125.66;;;5.44;61.04
77381;BME280;66439;50.106;10.996;2024-02-26T00:04:04;97117.98;;;5.42;61.03
77381;BME280;66439;50.106;10.996;2024-02-26T00:06:06;97122.74;;;5.39;61.05
77381;BME280;66439;50.106;10.996;2024-02-26T00:08:09;97119.35;;;5.36;61.06
77381;BME280;66439;50.106;10.996;2024-02-26T00:10:13;97121.86;;;5.34;61.00
77381;BME280;66439;50.106;10.996;2024-02-26T00:12:15;97115.31;;;5.33;61.17
77381;BME280;66439;50.106;10.996;2024-02-26T00:14:18;97113.57;;;5.33;61.28
77381;BME280;66439;50.106;10.996;2024-02-26T00:16:21;97114.09;;;5.33;61.35
77381;BME280;66439;50.106;10.996;2024-02-26T00:18:24;97117.21;;;5.32;61.22
77381;BME280;66439;50.106;10.996;2024-02-26T00:20:26;97113.52;;;5.32;61.10
77381;BME280;66439;50.106;10.996;2024-02-26T00:22:30;97115.96;;;5.32;61.22
77381;BME280;66439;50.106;10.996;2024-02-26T00:24:32;97108.75;;;5.31;61.31
77381;BME280;66439;50.106;10.996;2024-02-26T00:26:35;97106.80;;;5.33;61.35
77381;BME280;66439;50.106;10.996;2024-02-26T00:28:38;97100.55;;;5.35;61.26
77381;BME280;66439;50.106;10.996;2024-02-26T00:30:40;97098.29;;;5.38;61.24
77381;BME280;66439;50.106;10.996;2024-02-26T00:32:43;97095.80;;;5.40;61.09
77381;BME280;66439;50.106;10.996;2024-02-26T00:34:45;97097.05;;;5.40;60.93
77381;BME280;66439;50.106;10.996;2024-02-26T00:36:48;97101.58;;;5.38;60.87
77381;BME280;66439;50.106;10.996;2024-02-26T00:38:52;97098.84;;;5.36;60.85
77381;BME280;66439;50.106;10.996;2024-02-26T00:40:54;97097.56;;;5.33;60.94
77381;BME280;66439;50.106;10.996;2024-02-26T00:42:57;97095.04;;;5.31;61.02
77381;BME280;66439;50.106;10.996;2024-02-26T00:44:59;97098.59;;;5.30;61.00
77381;BME280;66439;50.106;10.996;2024-02-26T00:47:02;97099.41;;;5.27;60.96
77381;BME280;66439;50.106;10.996;2024-02-26T00:49:05;97096.52;;;5.25;61.15
77381;BME280;66439;50.106;10.996;2024-02-26T00:51:07;97096.15;;;5.24;61.14
77381;BME280;66439;50.106;10.996;2024-02-26T00:53:11;97092.98;;;5.23;61.33
77381;BME280;66439;50.106;10.996;2024-02-26T00:55:13;97088.86;;;5.22;61.16
77381;BME280;66439;50.106;10.996;2024-02-26T00:57:16;97085.09;;;5.19;61.09
77381;BME280;66439;50.106;10.996;2024-02-26T00:59:18;97085.95;;;5.20;61.19
77381;BME280;66439;50.106;10.996;2024-02-26T01:01:21;97084.84;;;5.19;61.19
77381;BME280;66439;50.106;10.996;2024-02-26T01:03:24;97082.95;;;5.17;61.23
77381;BME280;66439;50.106;10.996;2024-02-26T01:05:27;97082.75;;;5.16;61.25
77381;BME280;66439;50.106;10.996;2024-02-26T01:07:30;97084.14;;;5.14;61.20
77381;BME280;66439;50.106;10.996;2024-02-26T01:09:38;97087.98;;;5.13;61.16
77381;BME280;66439;50.106;10.996;2024-02-26T01:11:43;97090.77;;;5.12;61.29
77381;BME280;66439;50.106;10.996;2024-02-26T01:13:46;97090.20;;;5.11;61.40
77381;BME280;66439;50.106;10.996;2024-02-26T01:15:49;97090.05;;;5.13;61.48
77381;BME280;66439;50.106;10.996;2024-02-26T01:17:52;97087.23;;;5.15;61.30
77381;BME280;66439;50.106;10.996;2024-02-26T01:19:57;97084.30;;;5.19;61.38
77381;BME280;66439;50.106;10.996;2024-02-26T01:21:59;97081.33;;;5.20;61.44
77381;BME280;66439;50.106;10.996;2024-02-26T01:24:02;97079.34;;;5.22;61.50
77381;BME280;66439;50.106;10.996;2024-02-26T01:26:06;97083.29;;;5.23;61.50
77381;BME280;66439;50.106;10.996;2024-02-26T01:28:08;97081.77;;;5.25;61.40
77381;BME280;66439;50.106;10.996;2024-02-26T01:30:11;97082.39;;;5.27;61.29
77381;BME280;66439;50.106;10.996;2024-02-26T01:32:14;97081.70;;;5.27;61.42
77381;BME280;66439;50.106;10.996;2024-02-26T01:34:16;97081.13;;;5.26;61.12
77381;BME280;66439;50.106;10.996;2024-02-26T01:36:20;97076.90;;;5.25;61.19
77381;BME280;66439;50.106;10.996;2024-02-26T01:38:23;97081.08;;;5.24;61.10
77381;BME280;66439;50.106;10.996;2024-02-26T01:40:29;97082.08;;;5.23;61.24
77381;BME280;66439;50.106;10.996;2024-02-26T01:42:35;97085.49;;;5.20;61.19
77381;BME280;66439;50.106;10.996;2024-02-26T01:44:40;97085.75;;;5.17;61.17
77381;BME280;66439;50.106;10.996;2024-02-26T01:46:43;97086.15;;;5.15;61.14
77381;BME280;66439;50.106;10.996;2024-02-26T01:48:45;97085.27;;;5.14;61.21
77381;BME280;66439;50.106;10.996;2024-02-26T01:50:50;97084.86;;;5.11;61.29
77381;BME280;66439;50.106;10.996;2024-02-26T01:52:53;97083.12;;;5.08;61.20
77381;BME280;66439;50.106;10.996;2024-02-26T01:54:56;97084.10;;;5.06;61.17
77381;BME280;66439;50.106;10.996;2024-02-26T01:56:59;97083.72;;;5.04;61.27
77381;BME280;66439;50.106;10.996;2024-02-26T01:59:02;97090.65;;;5.00;61.45
77381;BME280;66439;50.106;10.996;2024-02-26T02:01:05;97092.53;;;4.98;61.49
77381;BME280;66439;50.106;10.996;2024-02-26T02:03:08;97089.02;;;4.95;61.64
77381;BME280;66439;50.106;10.996;2024-02-26T02:05:11;97087.96;;;4.94;61.60
77381;BME280;66439;50.106;10.996;2024-02-26T02:07:14;97090.84;;;4.91;61.61
77381;BME280;66439;50.106;10.996;2024-02-26T02:09:17;97093.95;;;4.89;61.74
77381;BME280;66439;50.106;10.996;2024-02-26T02:11:20;97091.90;;;4.87;61.64
77381;BME280;66439;50.106;10.996;2024-02-26T02:13:23;97090.27;;;4.86;61.57
77381;BME280;66439;50.106;10.996;2024-02-26T02:15:26;97083.33;;;4.84;61.70
77381;BME280;66439;50.106;10.996;2024-02-26T02:17:29;97082.86;;;4.82;61.66
77381;BME280;66439;50.106;10.996;2024-02-26T02:19:32;97088.98;;;4.79;61.79
77381;BME280;66439;50.106;10.996;2024-02-26T02:21:34;97091.55;;;4.77;61.74
77381;BME280;66439;50.106;10.996;2024-02-26T02:23:37;97091.70;;;4.75;61.94
77381;BME280;66439;50.106;10.996;2024-02-26T02:25:39;97094.04;;;4.74;61.89
77381;BME280;66439;50.106;10.996;2024-02-26T02:27:42;97092.92;;;4.73;61.97
77381;BME280;66439;50.106;10.996;2024-02-26T02:29:46;97091.79;;;4.72;61.98
77381;BME280;66439;50.106;10.996;2024-02-26T02:31:49;97094.13;;;4.72;62.08
77381;BME280;66439;50.106;10.996;2024-02-26T02:33:51;97094.41;;;4.71;62.07
77381;BME280;66439;50.106;10.996;2024-02-26T02:35:54;97096.85;;;4.69;62.20
77381;BME280;66439;50.106;10.996;2024-02-26T02:37:58;97090.73;;;4.69;62.17
77381;BME280;66439;50.106;10.996;2024-02-26T02:40:01;97083.90;;;4.69;62.24
77381;BME280;66439;50.106;10.996;2024-02-26T02:42:04;97082.95;;;4.68;62.26
77381;BME280;66439;50.106;10.996;2024-02-26T02:44:07;97084.77;;;4.68;62.27
77381;BME280;66439;50.106;10.996;2024-02-26T02:46:09;97079.52;;;4.69;62.24
77381;BME280;66439;50.106;10.996;2024-02-26T02:48:14;97081.90;;;4.71;62.08
77381;BME280;66439;50.106;10.996;2024-02-26T02:50:16;97080.70;;;4.73;62.23
77381;BME280;66439;50.106;10.996;2024-02-26T02:52:20;97084.24;;;4.75;62.33
77381;BME280;66439;50.106;10.996;2024-02-26T02:54:23;97085.54;;;4.76;62.34
77381;BME280;66439;50.106;10.996;2024-02-26T02:56:26;97085.04;;;4.77;62.32
77381;BME280;66439;50.106;10.996;2024-02-26T02:58:28;97085.63;;;4.76;62.31
77381;BME280;66439;50.106;10.996;2024-02-26T03:00:31;97084.73;;;4.75;62.27
77381;BME280;66439;50.106;10.996;2024-02-26T03:02:34;97085.54;;;4.74;62.33
77381;BME280;66439;50.106;10.996;2024-02-26T03:04:38;97085.64;;;4.73;62.16
77381;BME280;66439;50.106;10.996;2024-02-26T03:06:41;97085.95;;;4.72;62.51
77381;BME280;66439;50.106;10.996;2024-02-26T03:08:43;97087.75;;;4.71;62.35
77381;BME280;66439;50.106;10.996;2024-02-26T03:10:47;97088.36;;;4.70;62.43
77381;BME280;66439;50.106;10.996;2024-02-26T03:12:50;97088.42;;;4.69;62.41
77381;BME280;66439;50.106;10.996;2024-02-26T03:14:53;97086.64;;;4.68;62.49
77381;BME280;66439;50.106;10.996;2024-02-26T03:16:56;97082.86;;;4.68;62.64
77381;BME280;66439;50.106;10.996;2024-02-26T03:18:59;97089.51;;;4.68;62.62
77381;BME280;66439;50.106;10.996;2024-02-26T03:21:02;97090.88;;;4.67;62.70
77381;BME280;66439;50.106;10.996;2024-02-26T03:23:05;97097.62;;;4.66;62.75
77381;BME280;66439;50.106;10.996;2024-02-26T03:25:08;97100.56;;;4.65;62.79
77381;BME280;66439;50.106;10.996;2024-02-26T03:27:11;97101.43;;;4.65;63.12
77381;BME280;66439;50.106;10.996;2024-02-26T03:29:14;97104.89;;;4.63;62.93
77381;BME280;66439;50.106;10.996;2024-02-26T03:31:17;97107.89;;;4.63;63.11
77381;BME280;66439;50.106;10.996;2024-02-26T03:33:23;97108.13;;;4.63;62.94
77381;BME280;66439;50.106;10.996;2024-02-26T03:35:26;97110.55;;;4.63;63.12
77381;BME280;66439;50.106;10.996;2024-02-26T03:37:29;97111.69;;;4.62;63.13
77381;BME280;66439;50.106;10.996;2024-02-26T03:39:31;97103.48;;;4.62;63.02
77381;BME280;66439;50.106;10.996;2024-02-26T03:41:34;97098.49;;;4.63;63.02
77381;BME280;66439;50.106;10.996;2024-02-26T03:43:37;97097.89;;;4.63;63.15
77381;BME280;66439;50.106;10.996;2024-02-26T03:45:40;97096.27;;;4.64;63.18
77381;BME280;66439;50.106;10.996;2024-02-26T03:47:42;97096.19;;;4.64;63.26
77381;BME280;66439;50.106;10.996;2024-02-26T03:49:45;97097.65;;;4.66;63.14
77381;BME280;66439;50.106;10.996;2024-02-26T03:51:48;97093.52;;;4.68;63.30
77381;BME280;66439;50.106;10.996;2024-02-26T03:53:51;97091.25;;;4.72;63.07
77381;BME280;66439;50.106;10.996;2024-02-26T03:55:54;97086.39;;;4.76;63.15
77381;BME280;66439;50.106;10.996;2024-02-26T03:57:57;97081.45;;;4.79;63.21
77381;BME280;66439;50.106;10.996;2024-02-26T04:00:00;97078.52;;;4.81;63.15
77381;BME280;66439;50.106;10.996;2024-02-26T04:02:12;97073.11;;;4.84;63.14
77381;BME280;66439;50.106;10.996;2024-02-26T04:04:15;97073.09;;;4.84;62.87
77381;BME280;66439;50.106;10.996;2024-02-26T04:06:18;97067.40;;;4.83;62.94
77381;BME280;66439;50.106;10.996;2024-02-26T04:08:23;97069.10;;;4.82;63.10
77381;BME280;66439;50.106;10.996;2024-02-26T04:10:26;97065.02;;;4.83;63.14
77381;BME280;66439;50.106;10.996;2024-02-26T04:12:29;97064.46;;;4.84;62.98
77381;BME280;66439;50.106;10.996;2024-02-26T04:14:32;97065.50;;;4.83;62.83
77381;BME280;66439;50.106;10.996;2024-02-26T04:16:35;97067.96;;;4.81;62.97
77381;BME280;66439;50.106;10.996;2024-02-26T04:18:40;97067.52;;;4.79;62.93
77381;BME280;66439;50.106;10.996;2024-02-26T04:20:43;97076.59;;;4.79;62.99
77381;BME280;66439;50.106;10.996;2024-02-26T04:22:47;97082.57;;;4.77;63.11
77381;BME280;66439;50.106;10.996;2024-02-26T04:24:50;97080.77;;;4.75;63.13
77381;BME280;66439;50.106;10.996;2024-02-26T04:26:53;97077.95;;;4.73;63.20
77381;BME280;66439;50.106;10.996;2024-02-26T04:28:55;97075.42;;;4.72;63.22
77381;BME280;66439;50.106;10.996;2024-02-26T04:30:58;97078.91;;;4.72;63.39
77381;BME280;66439;50.106;10.996;2024-02-26T04:33:00;97082.75;;;4.72;63.41
77381;BME280;66439;50.106;10.996;2024-02-26T04:35:03;97081.17;;;4.71;63.40
77381;BME280;66439;50.106;10.996;2024-02-26T04:37:06;97077.77;;;4.71;63.39
77381;BME280;66439;50.106;10.996;2024-02-26T04:39:09;97076.13;;;4.69;63.52
77381;BME280;66439;50.106;10.996;2024-02-26T04:41:12;97079.98;;;4.70;63.47
77381;BME280;66439;50.106;10.996;2024-02-26T04:43:15;97085.83;;;4.69;63.56
77381;BME280;66439;50.106;10.996;2024-02-26T04:45:20;97092.59;;;4.69;63.55
77381;BME280;66439;50.106;10.996;2024-02-26T04:47:22;97092.42;;;4.68;63.72
77381;BME280;66439;50.106;10.996;2024-02-26T04:49:25;97094.08;;;4.70;63.57
77381;BME280;66439;50.106;10.996;2024-02-26T04:51:28;97090.35;;;4.74;63.71
77381;BME280;66439;50.106;10.996;2024-02-26T04:53:31;97089.25;;;4.77;63.82
77381;BME280;66439;50.106;10.996;2024-02-26T04:55:33;97091.73;;;4.79;63.75
77381;BME280;66439;50.106;10.996;2024-02-26T04:57:36;97092.65;;;4.81;63.82
77381;BME280;66439;50.106;10.996;2024-02-26T04:59:39;97093.69;;;4.83;63.76
77381;BME280;66439;50.106;10.996;2024-02-26T05:01:43;97091.23;;;4.88;63.73
77381;BME280;66439;50.106;10.996;2024-02-26T05:03:46;97086.23;;;4.92;63.61
77381;BME280;66439;50.106;10.996;2024-02-26T05:05:49;97081.06;;;4.93;63.63
77381;BME280;66439;50.106;10.996;2024-02-26T05:07:52;97083.67;;;4.94;63.47
77381;BME280;66439;50.106;10.996;2024-02-26T05:09:54;97083.75;;;4.95;63.46
77381;BME280;66439;50.106;10.996;2024-02-26T05:11:58;97081.28;;;4.94;63.64
77381;BME280;66439;50.106;10.996;2024-02-26T05:14:01;97082.98;;;4.93;63.55
77381;BME280;66439;50.106;10.996;2024-02-26T05:16:04;97083.93;;;4.92;63.47
77381;BME280;66439;50.106;10.996;2024-02-26T05:18:07;97081.72;;;4.90;63.43
77381;BME280;66439;50.106;10.996;2024-02-26T05:20:10;97082.95;;;4.88;63.65
77381;BME280;66439;50.106;10.996;2024-02-26T05:22:13;97081.81;;;4.86;63.62
77381;BME280;66439;50.106;10.996;2024-02-26T05:24:16;97079.69;;;4.85;63.72
77381;BME280;66439;50.106;10.996;2024-02-26T05:26:23;97080.69;;;4.83;63.65
77381;BME280;66439;50.106;10.996;2024-02-26T05:28:25;97079.91;;;4.84;63.82
77381;BME280;66439;50.106;10.996;2024-02-26T05:30:28;97084.41;;;4.83;63.78
77381;BME280;66439;50.106;10.996;2024-02-26T05:32:31;97085.85;;;4.82;63.89
77381;BME280;66439;50.106;10.996;2024-02-26T05:34:35;97086.82;;;4.81;63.89
77381;BME280;66439;50.106;10.996;2024-02-26T05:36:37;97089.65;;;4.81;64.07
77381;BME280;66439;50.106;10.996;2024-02-26T05:38:41;97092.59;;;4.81;63.95
77381;BME280;66439;50.106;10.996;2024-02-26T05:40:43;97088.73;;;4.81;64.04
77381;BME280;66439;50.106;10.996;2024-02-26T05:42:48;97086.55;;;4.82;64.02
77381;BME280;66439;50.106;10.996;2024-02-26T05:44:51;97091.27;;;4.85;64.14
77381;BME280;66439;50.106;10.996;2024-02-26T05:46:54;97096.15;;;4.86;64.04
77381;BME280;66439;50.106;10.996;2024-02-26T05:48:57;97102.86;;;4.89;64.08
77381;BME280;66439;50.106;10.996;2024-02-26T05:51:00;97108.11;;;4.92;64.23
77381;BME280;66439;50.106;10.996;2024-02-26T05:53:02;97106.19;;;4.94;64.34
77381;BME280;66439;50.106;10.996;2024-02-26T05:55:05;97108.52;;;4.96;64.20
77381;BME280;66439;50.106;10.996;2024-02-26T05:57:08;97109.52;;;4.99;64.42
77381;BME280;66439;50.106;10.996;2024-02-26T05:59:11;97108.37;;;5.01;64.25
77381;BME280;66439;50.106;10.996;2024-02-26T06:01:15;97113.89;;;5.04;64.11
77381;BME280;66439;50.106;10.996;2024-02-26T06:03:19;97113.21;;;5.08;64.07
77381;BME280;66439;50.106;10.996;2024-02-26T06:05:22;97114.63;;;5.11;64.11
77381;BME280;66439;50.106;10.996;2024-02-26T06:07:24;97113.06;;;5.13;63.98
77381;BME280;66439;50.106;10.996;2024-02-26T06:09:27;97117.06;;;5.17;63.76
77381;BME280;66439;50.106;10.996;2024-02-26T06:11:30;97122.98;;;5.17;63.71
77381;BME280;66439;50.106;10.996;2024-02-26T06:13:35;97121.52;;;5.16;63.77
77381;BME280;66439;50.106;10.996;2024-02-26T06:15:38;97115.50;;;5.15;63.78
77381;BME280;66439;50.106;10.996;2024-02-26T06:17:43;97111.00;;;5.15;63.77
77381;BME280;66439;50.106;10.996;2024-02-26T06:19:46;97118.78;;;5.14;63.82
77381;BME280;66439;50.106;10.996;2024-02-26T06:21:48;97118.81;;;5.12;64.01
77381;BME280;66439;50.106;10.996;2024-02-26T06:23:51;97114.55;;;5.11;63.88
77381;BME280;66439;50.106;10.996;2024-02-26T06:25:54;97118.70;;;5.09;64.03
77381;BME280;66439;50.106;10.996;2024-02-26T06:27:56;97116.82;;;5.07;64.05
77381;BME280;66439;50.106;10.996;2024-02-26T06:29:59;97119.45;;;5.07;64.12
77381;BME280;66439;50.106;10.996;2024-02-26T06:32:02;97128.61;;;5.08;64.14
77381;BME280;66439;50.106;10.996;2024-02-26T06:34:05;97124.86;;;5.09;64.18
77381;BME280;66439;50.106;10.996;2024-02-26T06:36:08;97128.27;;;5.09;63.95
77381;BME280;66439;50.106;10.996;2024-02-26T06:38:12;97120.24;;;5.11;64.12
77381;BME280;66439;50.106;10.996;2024-02-26T06:40:16;97118.41;;;5.13;64.04
77381;BME280;66439;50.106;10.996;2024-02-26T06:42:18;97118.74;;;5.14;63.93
77381;BME280;66439;50.106;10.996;2024-02-26T06:44:21;97119.54;;;5.17;63.95
77381;BME280;66439;50.106;10.996;2024-02-26T06:46:23;97122.76;;;5.22;64.23
77381;BME280;66439;50.106;10.996;2024-02-26T06:48:26;97129.02;;;5.26;64.14
77381;BME280;66439;50.106;10.996;2024-02-26T06:50:29;97135.02;;;5.28;64.11
77381;BME280;66439;50.106;10.996;2024-02-26T06:52:32;97136.63;;;5.28;64.00
77381;BME280;66439;50.106;10.996;2024-02-26T06:54:34;97136.29;;;5.30;64.02
77381;BME280;66439;50.106;10.996;2024-02-26T06:56:37;97135.77;;;5.31;64.22
77381;BME280;66439;50.106;10.996;2024-02-26T06:58:40;97138.56;;;5.31;64.25
77381;BME280;66439;50.106;10.996;2024-02-26T07:00:42;97146.35;;;5.32;64.01
77381;BME280;66439;50.106;10.996;2024-02-26T07:02:45;97152.75;;;5.33;64.11
77381;BME280;66439;50.106;10.996;2024-02-26T07:04:48;97161.71;;;5.33;64.01
77381;BME280;66439;50.106;10.996;2024-02-26T07:06:51;97168.45;;;5.34;64.16
77381;BME280;66439;50.106;10.996;2024-02-26T07:08:54;97170.30;;;5.35;64.21
77381;BME280;66439;50.106;10.996;2024-02-26T07:10:57;97173.62;;;5.35;64.14
77381;BME280;66439;50.106;10.996;2024-02-26T07:13:00;97174.80;;;5.35;64.29
77381;BME280;66439;50.106;10.996;2024-02-26T07:15:03;97176.98;;;5.36;64.32
77381;BME280;66439;50.106;10.996;2024-02-26T07:17:06;97178.41;;;5.36;64.26
77381;BME280;66439;50.106;10.996;2024-02-26T07:19:09;97178.13;;;5.37;64.28
77381;BME280;66439;50.106;10.996;2024-02-26T07:21:12;97179.14;;;5.36;64.36
77381;BME280;66439;50.106;10.996;2024-02-26T07:23:15;97178.81;;;5.36;64.27
77381;BME280;66439;50.106;10.996;2024-02-26T07:25:17;97178.94;;;5.36;64.54
77381;BME280;66439;50.106;10.996;2024-02-26T07:27:21;97186.32;;;5.37;64.33
77381;BME280;66439;50.106;10.996;2024-02-26T07:29:24;97194.26;;;5.37;64.47
77381;BME280;66439;50.106;10.996;2024-02-26T07:31:27;97195.78;;;5.40;64.53
77381;BME280;66439;50.106;10.996;2024-02-26T07:33:29;97193.58;;;5.46;64.52
77381;BME280;66439;50.106;10.996;2024-02-26T07:35:32;97189.70;;;5.51;64.61
77381;BME280;66439;50.106;10.996;2024-02-26T07:37:36;97199.16;;;5.56;64.60
77381;BME280;66439;50.106;10.996;2024-02-26T07:39:40;97199.54;;;5.60;64.61
77381;BME280;66439;50.106;10.996;2024-02-26T07:41:42;97196.36;;;5.65;64.63
77381;BME280;66439;50.106;10.996;2024-02-26T07:43:49;97194.67;;;5.69;64.43
77381;BME280;66439;50.106;10.996;2024-02-26T07:45:51;97195.60;;;5.72;64.32
77381;BME280;66439;50.106;10.996;2024-02-26T07:47:54;97197.84;;;5.72;64.36
77381;BME280;66439;50.106;10.996;2024-02-26T07:49:57;97202.67;;;5.74;64.36
77381;BME280;66439;50.106;10.996;2024-02-26T07:52:00;97203.48;;;5.78;64.30
77381;BME280;66439;50.106;10.996;2024-02-26T07:54:03;97198.48;;;5.80;64.28
77381;BME280;66439;50.106;10.996;2024-02-26T07:56:06;97205.73;;;5.82;64.27
77381;BME280;66439;50.106;10.996;2024-02-26T07:58:09;97213.61;;;5.82;64.09
77381;BME280;66439;50.106;10.996;2024-02-26T08:00:12;97211.18;;;5.82;64.17
77381;BME280;66439;50.106;10.996;2024-02-26T08:02:19;97209.07;;;5.82;64.20
77381;BME280;66439;50.106;10.996;2024-02-26T08:04:23;97211.50;;;5.81;64.23
77381;BME280;66439;50.106;10.996;2024-02-26T08:06:26;97214.25;;;5.80;64.35
77381;BME280;66439;50.106;10.996;2024-02-26T08:08:29;97214.86;;;5.80;64.38
77381;BME280;66439;50.106;10.996;2024-02-26T08:10:32;97221.67;;;5.80;64.61
77381;BME280;66439;50.106;10.996;2024-02-26T08:12:35;97215.61;;;5.82;64.70
77381;BME280;66439;50.106;10.996;2024-02-26T08:14:38;97215.38;;;5.85;64.68
77381;BME280;66439;50.106;10.996;2024-02-26T08:16:40;97217.45;;;5.90;64.64
77381;BME280;66439;50.106;10.996;2024-02-26T08:18:43;97215.26;;;5.95;64.73
77381;BME280;66439;50.106;10.996;2024-02-26T08:20:46;97214.29;;;6.00;64.67
77381;BME280;66439;50.106;10.996;2024-02-26T08:22:50;97214.77;;;6.06;64.69
77381;BME280;66439;50.106;10.996;2024-02-26T08:24:53;97215.11;;;6.12;64.72
77381;BME280;66439;50.106;10.996;2024-02-26T08:26:56;97217.67;;;6.18;64.51
77381;BME280;66439;50.106;10.996;2024-02-26T08:28:59;97215.06;;;6.23;64.54
77381;BME280;66439;50.106;10.996;2024-02-26T08:31:02;97211.98;;;6.28;64.36
77381;BME280;66439;50.106;10.996;2024-02-26T08:33:05;97215.85;;;6.32;64.20
77381;BME280;66439;50.106;10.996;2024-02-26T08:35:07;97218.41;;;6.38;64.12
77381;BME280;66439;50.106;10.996;2024-02-26T08:37:11;97220.39;;;6.42;63.92
77381;BME280;66439;50.106;10.996;2024-02-26T08:39:13;97224.79;;;6.44;63.94
77381;BME280;66439;50.106;10.996;2024-02-26T08:41:16;97224.27;;;6.46;64.08
77381;BME280;66439;50.106;10.996;2024-02-26T08:43:19;97227.25;;;6.48;63.93
77381;BME280;66439;50.106;10.996;2024-02-26T08:45:21;97228.36;;;6.52;63.95
77381;BME280;66439;50.106;10.996;2024-02-26T08:47:24;97233.05;;;6.55;63.90
77381;BME280;66439;50.106;10.996;2024-02-26T08:49:27;97234.11;;;6.58;63.72
77381;BME280;66439;50.106;10.996;2024-02-26T08:51:30;97235.97;;;6.60;63.73
77381;BME280;66439;50.106;10.996;2024-02-26T08:53:32;97236.91;;;6.62;63.62
77381;BME280;66439;50.106;10.996;2024-02-26T08:55:44;97232.18;;;6.65;63.63
77381;BME280;66439;50.106;10.996;2024-02-26T08:57:47;97230.27;;;6.65;63.70
77381;BME280;66439;50.106;10.996;2024-02-26T08:59:50;97228.52;;;6.66;63.71
77381;BME280;66439;50.106;10.996;2024-02-26T09:01:52;97225.64;;;6.66;63.76
77381;BME280;66439;50.106;10.996;2024-02-26T09:03:55;97225.95;;;6.67;63.74
77381;BME280;66439;50.106;10.996;2024-02-26T09:05:58;97223.58;;;6.67;63.70
77381;BME280;66439;50.106;10.996;2024-02-26T09:08:01;97226.88;;;6.69;63.84
77381;BME280;66439;50.106;10.996;2024-02-26T09:10:06;97232.15;;;6.73;63.80
77381;BME280;66439;50.106;10.996;2024-02-26T09:12:11;97237.02;;;6.79;63.48
77381;BME280;66439;50.106;10.996;2024-02-26T09:14:14;97241.06;;;6.87;63.74
77381;BME280;66439;50.106;10.996;2024-02-26T09:16:17;97241.55;;;6.92;63.81
77381;BME280;66439;50.106;10.996;2024-02-26T09:18:19;97239.14;;;6.99;63.85
77381;BME280;66439;50.106;10.996;2024-02-26T09:20:22;97239.61;;;7.06;63.67
77381;BME280;66439;50.106;10.996;2024-02-26T09:22:26;97238.51;;;7.13;63.65
77381;BME280;66439;50.106;10.996;2024-02-26T09:24:29;97237.16;;;7.21;63.51
77381;BME280;66439;50.106;10.996;2024-02-26T09:26:32;97239.41;;;7.28;63.35
77381;BME280;66439;50.106;10.996;2024-02-26T09:28:34;97242.84;;;7.34;63.28
77381;BME280;66439;50.106;10.996;2024-02-26T09:30:39;97245.52;;;7.40;63.16
77381;BME280;66439;50.106;10.996;2024-02-26T09:32:46;97246.41;;;7.45;63.12
77381;BME280;66439;50.106;10.996;2024-02-26T09:34:49;97245.13;;;7.49;63.02
77381;BME280;66439;50.106;10.996;2024-02-26T09:36:51;97239.73;;;7.53;63.08
77381;BME280;66439;50.106;10.996;2024-02-26T09:38:54;97238.55;;;7.56;62.81
77381;BME280;66439;50.106;10.996;2024-02-26T09:41:06;97246.77;;;7.61;62.75
77381;BME280;66439;50.106;10.996;2024-02-26T09:43:13;97250.77;;;7.64;62.63
77381;BME280;66439;50.106;10.996;2024-02-26T09:45:21;97254.64;;;7.68;62.63
77381;BME280;66439;50.106;10.996;2024-02-26T09:47:25;97258.52;;;7.71;62.54
77381;BME280;66439;50.106;10.996;2024-02-26T09:49:29;97252.46;;;7.75;62.41
77381;BME280;66439;50.106;10.996;2024-02-26T09:51:32;97250.80;;;7.81;62.45
77381;BME280;66439;50.106;10.996;2024-02-26T09:53:35;97253.58;;;7.86;62.31
77381;BME280;66439;50.106;10.996;2024-02-26T09:55:41;97253.63;;;7.89;62.13
77381;BME280;66439;50.106;10.996;2024-02-26T09:57:46;97251.88;;;7.89;61.91
77381;BME280;66439;50.106;10.996;2024-02-26T09:59:49;97253.02;;;7.91;61.84
77381;BME280;66439;50.106;10.996;2024-02-26T10:01:53;97253.71;;;7.93;61.87
77381;BME280;66439;50.106;10.996;2024-02-26T10:03:57;97253.43;;;7.93;61.62
77381;BME280;66439;50.106;10.996;2024-02-26T10:06:00;97254.08;;;7.95;61.76
77381;BME280;66439;50.106;10.996;2024-02-26T10:08:06;97248.83;;;7.96;61.71
77381;BME280;66439;50.106;10.996;2024-02-26T10:10:09;97250.34;;;7.97;61.62
77381;BME280;66439;50.106;10.996;2024-02-26T10:12:12;97251.42;;;7.98;61.57
77381;BME280;66439;50.106;10.996;2024-02-26T10:14:15;97253.83;;;7.98;61.58
77381;BME280;66439;50.106;10.996;2024-02-26T10:16:19;97251.75;;;7.99;61.44
77381;BME280;66439;50.106;10.996;2024-02-26T10:18:22;97246.06;;;8.01;61.57
77381;BME280;66439;50.106;10.996;2024-02-26T10:20:27;97241.61;;;8.03;61.47
77381;BME280;66439;50.106;10.996;2024-02-26T10:22:32;97239.79;;;8.04;61.77
77381;BME280;66439;50.106;10.996;2024-02-26T10:24:34;97240.41;;;8.09;61.66
77381;BME280;66439;50.106;10.996;2024-02-26T10:26:38;97237.77;;;8.16;61.80
77381;BME280;66439;50.106;10.996;2024-02-26T10:28:47;97239.48;;;8.23;61.69
77381;BME280;66439;50.106;10.996;2024-02-26T10:30:56;97245.20;;;8.29;61.86
77381;BME280;66439;50.106;10.996;2024-02-26T10:32:58;97249.98;;;8.36;61.69
77381;BME280;66439;50.106;10.996;2024-02-26T10:35:01;97255.21;;;8.43;61.60
77381;BME280;66439;50.106;10.996;2024-02-26T10:37:05;97260.78;;;8.50;61.61
77381;BME280;66439;50.106;10.996;2024-02-26T10:39:08;97261.60;;;8.55;61.33
77381;BME280;66439;50.106;10.996;2024-02-26T10:41:14;97257.30;;;8.60;61.03
77381;BME280;66439;50.106;10.996;2024-02-26T10:43:19;97256.04;;;8.65;61.24
77381;BME280;66439;50.106;10.996;2024-02-26T10:45:22;97254.45;;;8.70;60.95
77381;BME280;66439;50.106;10.996;2024-02-26T10:47:24;97255.69;;;8.76;60.86
77381;BME280;66439;50.106;10.996;2024-02-26T10:49:27;97253.97;;;8.81;60.79
77381;BME280;66439;50.106;10.996;2024-02-26T10:51:30;97251.91;;;8.85;60.74
77381;BME280;66439;50.106;10.996;2024-02-26T10:53:34;97251.09;;;8.90;60.80